createdAt,value
2022-09-04T00:02:24.349Z,2.50
2022-09-04T00:05:04.369Z,2.63
2022-09-04T00:07:39.746Z,2.80
2022-09-04T00:10:15.289Z,2.80
2022-09-04T00:12:50.390Z,2.50
2022-09-04T00:15:22.255Z,2.60
2022-09-04T00:17:59.515Z,2.80
2022-09-04T00:20:46.992Z,3.00
2022-09-04T00:23:20.984Z,2.63
2022-09-04T00:25:58.935Z,2.50
2022-09-04T00:28:35.491Z,2.50
2022-09-04T00:31:16.354Z,2.80
2022-09-04T00:33:57.487Z,2.70
2022-09-04T00:36:29.398Z,2.67
2022-09-04T00:39:01.634Z,2.60
2022-09-04T00:41:31.750Z,2.60
2022-09-04T00:44:25.472Z,2.87
2022-09-04T00:47:10.694Z,2.43
2022-09-04T00:50:22.658Z,2.70
2022-09-04T00:53:10.705Z,2.50
2022-09-04T00:56:05.409Z,3.10
2022-09-04T00:58:56.793Z,2.60
2022-09-04T01:01:27.989Z,3.00
2022-09-04T01:04:24.610Z,2.67
2022-09-04T01:07:09.213Z,2.73
2022-09-04T01:09:53.926Z,3.20
2022-09-04T01:12:33.767Z,2.87
2022-09-04T01:15:14.350Z,2.80
2022-09-04T01:17:52.070Z,2.80
2022-09-04T01:20:28.983Z,2.80
2022-09-04T01:23:23.150Z,2.60
2022-09-04T01:26:03.562Z,2.77
2022-09-04T01:28:43.047Z,2.53
2022-09-04T01:31:23.881Z,2.50
2022-09-04T01:34:04.009Z,3.20
2022-09-04T01:36:39.298Z,3.20
2022-09-04T01:39:07.379Z,3.03
2022-09-04T01:41:46.095Z,3.00
2022-09-04T01:44:16.939Z,2.80
2022-09-04T01:47:01.428Z,2.77
2022-09-04T01:49:35.681Z,3.20
2022-09-04T01:52:36.498Z,3.23
2022-09-04T01:55:13.421Z,2.80
2022-09-04T01:57:55.541Z,2.70
2022-09-04T02:00:25.040Z,3.40
2022-09-04T02:03:02.291Z,3.23
2022-09-04T02:05:45.648Z,2.80
2022-09-04T02:08:39.255Z,2.90
2022-09-04T02:11:15.815Z,3.10
2022-09-04T02:14:04.693Z,3.30
2022-09-04T02:16:45.482Z,3.07
2022-09-04T02:19:28.279Z,2.77
2022-09-04T02:22:02.954Z,2.63
2022-09-04T02:24:37.612Z,2.60
2022-09-04T02:27:11.853Z,2.77
2022-09-04T02:29:47.955Z,2.90
2022-09-04T02:32:25.735Z,3.13
2022-09-04T02:35:00.206Z,3.00
2022-09-04T02:37:39.677Z,3.10
2022-09-04T02:40:16.328Z,2.93
2022-09-04T02:42:58.491Z,3.07
2022-09-04T02:45:35.727Z,2.90
2022-09-04T02:48:14.238Z,2.90
2022-09-04T02:50:57.853Z,2.73
2022-09-04T02:53:33.690Z,3.03
2022-09-04T02:56:17.544Z,3.07
2022-09-04T02:59:03.653Z,2.90
2022-09-04T03:01:43.601Z,2.80
2022-09-04T03:04:25.965Z,3.20
2022-09-04T03:06:58.172Z,3.23
2022-09-04T03:09:30.196Z,2.80
2022-09-04T03:12:04.948Z,2.93
2022-09-04T03:14:40.188Z,3.30
2022-09-04T03:17:17.427Z,3.20
2022-09-04T03:19:52.391Z,3.10
2022-09-04T03:22:28.398Z,2.90
2022-09-04T03:25:08.706Z,2.90
2022-09-04T03:27:36.998Z,3.23
2022-09-04T03:30:08.998Z,3.00
2022-09-04T03:32:46.453Z,3.17
2022-09-04T03:35:25.826Z,3.10
2022-09-04T03:38:09.987Z,3.70
2022-09-04T03:40:43.061Z,3.50
2022-09-04T03:43:31.307Z,2.93
2022-09-04T03:46:12.187Z,3.20
2022-09-04T03:49:01.391Z,3.30
2022-09-04T03:51:40.386Z,3.10
2022-09-04T03:54:18.166Z,3.43
2022-09-04T03:56:54.591Z,3.27
2022-09-04T03:59:41.203Z,2.90
2022-09-04T04:02:24.250Z,3.20
2022-09-04T04:05:21.509Z,3.57
2022-09-04T04:08:04.774Z,3.37
2022-09-04T04:10:48.584Z,3.30
2022-09-04T04:13:33.387Z,2.90
2022-09-04T04:16:24.703Z,3.40
2022-09-04T04:19:12.174Z,3.40
2022-09-04T04:21:56.980Z,3.60
2022-09-04T04:24:44.293Z,3.30
2022-09-04T04:27:25.719Z,3.60
2022-09-04T04:30:09.425Z,3.40
2022-09-04T04:33:01.427Z,3.67
2022-09-04T04:35:36.810Z,3.20
2022-09-04T04:38:19.279Z,3.30
2022-09-04T04:41:05.637Z,3.20
2022-09-04T04:43:45.849Z,3.20
2022-09-04T04:46:22.527Z,3.40
2022-09-04T04:49:07.849Z,3.30
2022-09-04T04:52:05.839Z,3.60
2022-09-04T04:55:10.841Z,3.40
2022-09-04T04:58:02.483Z,3.50
2022-09-04T05:00:37.113Z,3.53
2022-09-04T05:03:15.415Z,3.40
2022-09-04T05:05:58.260Z,3.87
2022-09-04T05:08:35.974Z,3.97
2022-09-04T05:11:11.594Z,4.30
2022-09-04T05:13:53.470Z,3.80
2022-09-04T05:16:30.050Z,3.50
2022-09-04T05:19:03.051Z,3.97
2022-09-04T05:21:38.555Z,4.10
2022-09-04T05:24:11.997Z,4.40
2022-09-04T05:26:49.825Z,4.03
2022-09-04T05:29:27.218Z,3.83
2022-09-04T05:32:02.395Z,3.63
2022-09-04T05:34:36.783Z,3.97
2022-09-04T05:37:15.291Z,3.87
2022-09-04T05:40:00.840Z,3.80
2022-09-04T05:42:58.927Z,4.63
2022-09-04T05:45:38.440Z,4.30
2022-09-04T05:48:17.523Z,4.30
2022-09-04T05:51:04.245Z,4.20
2022-09-04T05:54:00.842Z,3.90
2022-09-04T05:57:13.170Z,3.47
2022-09-04T06:00:09.412Z,3.70
2022-09-04T06:03:09.825Z,4.23
2022-09-04T06:05:52.033Z,3.93
2022-09-04T06:08:33.475Z,3.87
2022-09-04T06:11:22.653Z,4.00
2022-09-04T06:14:25.636Z,3.80
2022-09-04T06:17:12.688Z,4.57
2022-09-04T06:20:02.090Z,3.83
2022-09-04T06:22:47.861Z,3.93
2022-09-04T06:25:31.910Z,4.10
2022-09-04T06:28:14.150Z,4.00
2022-09-04T06:30:49.811Z,4.20
2022-09-04T06:33:59.037Z,4.00
2022-09-04T06:37:02.102Z,3.70
2022-09-04T06:39:45.988Z,3.80
2022-09-04T06:42:28.017Z,4.00
2022-09-04T06:45:11.134Z,3.93
2022-09-04T06:47:54.742Z,3.50
2022-09-04T06:50:35.142Z,3.60
2022-09-04T06:53:19.285Z,4.00
2022-09-04T06:55:59.254Z,3.80
2022-09-04T06:58:51.168Z,3.73
2022-09-04T07:01:27.437Z,3.50
2022-09-04T07:04:07.519Z,3.57
2022-09-04T07:06:51.377Z,3.83
2022-09-04T07:09:24.208Z,3.33
2022-09-04T07:12:16.280Z,3.60
2022-09-04T07:15:14.135Z,3.83
2022-09-04T07:17:49.314Z,4.23
2022-09-04T07:20:33.138Z,10.87
2022-09-04T07:23:37.108Z,3.47
2022-09-04T07:26:20.466Z,3.53
2022-09-04T07:29:23.753Z,4.23
2022-09-04T07:32:02.467Z,6.40
2022-09-04T07:34:41.268Z,7.00
2022-09-04T07:37:27.894Z,5.03
2022-09-04T07:40:09.576Z,3.70
2022-09-04T07:42:45.800Z,6.83
2022-09-04T07:45:23.486Z,3.47
2022-09-04T07:48:07.249Z,3.40
2022-09-04T07:50:40.276Z,3.00
2022-09-04T07:53:21.322Z,4.10
2022-09-04T07:55:56.358Z,3.20
2022-09-04T07:58:44.299Z,2.90
2022-09-04T08:01:40.322Z,2.80
2022-09-04T08:04:33.951Z,3.60
2022-09-04T08:07:08.287Z,2.70
2022-09-04T08:09:53.909Z,3.10
2022-09-04T08:12:50.896Z,3.00
2022-09-04T08:15:22.251Z,2.97
2022-09-04T08:18:05.550Z,3.40
2022-09-04T08:20:45.471Z,3.23
2022-09-04T08:24:01.568Z,2.93
2022-09-04T08:26:46.040Z,3.00
2022-09-04T08:29:37.469Z,3.70
2022-09-04T08:32:22.497Z,3.57
2022-09-04T08:35:22.566Z,3.20
2022-09-04T08:38:08.648Z,5.03
2022-09-04T08:41:02.731Z,4.57
2022-09-04T08:43:41.115Z,3.17
2022-09-04T08:46:49.464Z,6.17
2022-09-04T08:49:55.246Z,3.33
2022-09-04T08:53:03.869Z,3.40
2022-09-04T08:55:46.026Z,2.93
2022-09-04T08:58:55.736Z,3.00
2022-09-04T09:02:03.378Z,3.33
2022-09-04T09:05:09.014Z,2.80
2022-09-04T09:08:18.726Z,3.00
2022-09-04T09:11:13.165Z,3.10
2022-09-04T09:14:11.623Z,3.60
2022-09-04T09:16:45.088Z,2.80
2022-09-04T09:19:22.911Z,2.57
2022-09-04T09:22:12.449Z,3.13
2022-09-04T09:25:21.214Z,3.03
2022-09-04T09:28:26.684Z,3.17
2022-09-04T09:31:38.290Z,2.60
2022-09-04T09:34:36.450Z,3.00
2022-09-04T09:37:35.285Z,2.90
2022-09-04T09:40:26.824Z,2.60
2022-09-04T09:43:35.345Z,3.07
2022-09-04T09:46:33.426Z,2.97
2022-09-04T09:49:21.272Z,2.90
2022-09-04T09:52:15.386Z,2.30
2022-09-04T09:55:28.078Z,3.03
2022-09-04T09:58:28.465Z,2.90
2022-09-04T10:01:08.605Z,2.83
2022-09-04T10:04:12.208Z,3.10
2022-09-04T10:07:10.854Z,2.73
2022-09-04T10:10:18.786Z,3.00
2022-09-04T10:13:26.169Z,3.07
2022-09-04T10:16:21.025Z,3.40
2022-09-04T10:19:39.454Z,3.50
2022-09-04T10:22:41.868Z,2.90
2022-09-04T10:25:31.313Z,3.20
2022-09-04T10:28:41.021Z,3.13
2022-09-04T10:31:45.753Z,2.93
2022-09-04T10:34:38.445Z,3.27
2022-09-04T10:37:22.928Z,3.60
2022-09-04T10:40:24.288Z,4.80
2022-09-04T10:43:11.742Z,3.60
2022-09-04T10:45:47.209Z,3.73
2022-09-04T10:48:49.193Z,3.70
2022-09-04T10:52:09.895Z,3.30
2022-09-04T10:55:19.841Z,2.93
2022-09-04T10:58:02.097Z,2.90
2022-09-04T11:00:36.778Z,3.50
2022-09-04T11:03:33.387Z,3.63
2022-09-04T11:06:43.761Z,3.43
2022-09-04T11:09:23.674Z,3.53
2022-09-04T11:12:36.294Z,3.60
2022-09-04T11:15:27.719Z,3.17
2022-09-04T11:18:34.755Z,2.83
2022-09-04T11:21:58.923Z,3.60
2022-09-04T11:25:19.096Z,3.70
2022-09-04T11:28:01.489Z,3.87
2022-09-04T11:30:36.685Z,3.47
2022-09-04T11:33:50.402Z,2.97
2022-09-04T11:36:52.977Z,2.97
2022-09-04T11:39:43.717Z,3.00
2022-09-04T11:42:49.951Z,3.67
2022-09-04T11:45:49.625Z,3.47
2022-09-04T11:48:57.479Z,3.63
2022-09-04T11:52:04.080Z,3.23
2022-09-04T11:55:14.075Z,2.50
2022-09-04T11:58:00.307Z,2.63
2022-09-04T12:00:48.571Z,2.97
2022-09-04T12:03:53.018Z,2.50
2022-09-04T12:06:46.723Z,2.50
2022-09-04T12:09:36.739Z,2.63
2022-09-04T12:12:31.472Z,2.10
2022-09-04T12:15:37.950Z,2.33
2022-09-04T12:18:31.933Z,2.40
2022-09-04T12:21:20.242Z,2.67
2022-09-04T12:24:05.282Z,2.77
2022-09-04T12:26:59.717Z,2.60
2022-09-04T12:29:59.047Z,2.40
2022-09-04T12:33:40.947Z,2.33
2022-09-04T12:36:59.612Z,2.63
2022-09-04T12:39:53.008Z,2.10
2022-09-04T12:42:29.756Z,2.33
2022-09-04T12:45:10.036Z,2.40
2022-09-04T12:47:54.400Z,2.17
2022-09-04T12:50:34.405Z,2.40
2022-09-04T12:53:19.262Z,2.60
2022-09-04T12:55:52.914Z,2.50
2022-09-04T12:58:33.866Z,2.13
2022-09-04T13:01:21.374Z,1.80
2022-09-04T13:03:59.091Z,2.03
2022-09-04T13:06:38.246Z,2.33
2022-09-04T13:09:19.985Z,1.60
2022-09-04T13:12:07.299Z,1.70
2022-09-04T13:14:54.019Z,1.80
2022-09-04T13:17:29.628Z,2.13
2022-09-04T13:20:12.726Z,2.10
2022-09-04T13:22:55.077Z,1.97
2022-09-04T13:25:46.093Z,1.77
2022-09-04T13:28:29.275Z,1.60
2022-09-04T13:31:10.007Z,2.10
2022-09-04T13:33:51.391Z,1.83
2022-09-04T13:36:30.354Z,1.60
2022-09-04T13:39:36.605Z,2.10
2022-09-04T13:42:22.873Z,1.60
2022-09-04T13:45:07.232Z,1.30
2022-09-04T13:47:49.966Z,2.27
2022-09-04T13:50:25.954Z,2.07
2022-09-04T13:52:59.657Z,2.20
2022-09-04T13:55:31.582Z,1.80
2022-09-04T13:58:10.461Z,2.50
2022-09-04T14:00:45.901Z,2.30
2022-09-04T14:03:32.792Z,1.80
2022-09-04T14:06:02.508Z,1.57
2022-09-04T14:08:31.359Z,1.80
2022-09-04T14:11:26.192Z,1.80
2022-09-04T14:14:20.013Z,3.40
2022-09-04T14:16:49.585Z,3.23
2022-09-04T14:19:32.399Z,2.60
2022-09-04T14:22:24.596Z,2.40
2022-09-04T14:25:06.445Z,2.90
2022-09-04T14:27:47.964Z,2.20
2022-09-04T14:30:18.114Z,1.90
2022-09-04T14:32:58.039Z,1.70
2022-09-04T14:35:36.363Z,1.70
2022-09-04T14:38:24.481Z,1.90
2022-09-04T14:41:03.345Z,2.00
2022-09-04T14:43:45.726Z,2.10
2022-09-04T14:46:22.015Z,2.30
2022-09-04T14:49:01.081Z,1.80
2022-09-04T14:51:36.751Z,1.70
2022-09-04T14:54:06.392Z,1.77
2022-09-04T14:56:41.153Z,1.53
2022-09-04T14:59:17.691Z,1.90
2022-09-04T15:02:06.171Z,2.00
2022-09-04T15:04:42.416Z,1.90
2022-09-04T15:07:31.634Z,2.03
2022-09-04T15:10:17.330Z,2.17
2022-09-04T15:12:54.502Z,2.37
2022-09-04T15:15:31.596Z,2.13
2022-09-04T15:18:10.836Z,1.73
2022-09-04T15:20:48.902Z,1.67
2022-09-04T15:23:25.877Z,1.70
2022-09-04T15:26:02.994Z,2.17
2022-09-04T15:28:39.946Z,1.70
2022-09-04T15:31:16.040Z,2.00
2022-09-04T15:33:47.619Z,2.10
2022-09-04T15:36:20.221Z,2.07
2022-09-04T15:38:55.810Z,1.80
2022-09-04T15:41:37.747Z,2.20
2022-09-04T15:44:18.579Z,2.30
2022-09-04T15:47:20.412Z,2.17
2022-09-04T15:49:52.548Z,1.80
2022-09-04T15:52:31.012Z,1.70
2022-09-04T15:55:12.009Z,2.33
2022-09-04T15:57:52.092Z,1.87
2022-09-04T16:00:24.135Z,2.30
2022-09-04T16:02:59.205Z,1.80
2022-09-04T16:05:36.149Z,1.90
2022-09-04T16:08:20.588Z,2.00
2022-09-04T16:10:58.459Z,2.87
2022-09-04T16:13:40.155Z,2.43
2022-09-04T16:16:19.285Z,2.87
2022-09-04T16:19:04.756Z,2.80
2022-09-04T16:21:42.872Z,1.80
2022-09-04T16:24:16.790Z,1.83
2022-09-04T16:26:54.052Z,2.03
2022-09-04T16:29:32.873Z,2.50
2022-09-04T16:32:01.268Z,1.80
2022-09-04T16:34:34.443Z,2.17
2022-09-04T16:37:10.335Z,2.23
2022-09-04T16:39:49.525Z,2.63
2022-09-04T16:42:25.103Z,2.60
2022-09-04T16:45:00.326Z,2.50
2022-09-04T16:47:36.487Z,2.63
2022-09-04T16:50:17.980Z,1.93
2022-09-04T16:53:12.688Z,3.50
2022-09-04T16:55:48.842Z,2.37
2022-09-04T16:58:34.974Z,1.90
2022-09-04T17:01:14.319Z,3.30
2022-09-04T17:04:13.886Z,2.30
2022-09-04T17:07:00.150Z,2.80
2022-09-04T17:09:34.345Z,4.00
2022-09-04T17:12:18.170Z,4.07
2022-09-04T17:14:53.737Z,2.93
2022-09-04T17:17:31.221Z,2.70
2022-09-04T17:20:11.275Z,3.97
2022-09-04T17:29:01.870Z,4.33
2022-09-04T17:29:15.595Z,3.90
2022-09-04T17:29:24.485Z,3.50
2022-09-04T17:31:45.597Z,2.93
2022-09-04T17:40:31.792Z,2.90
2022-09-04T17:40:40.415Z,2.70
2022-09-04T17:40:49.734Z,3.00
2022-09-04T17:43:22.124Z,3.33
2022-09-04T17:46:06.711Z,2.47
2022-09-04T17:48:42.009Z,2.60
2022-09-04T17:51:17.658Z,2.10
2022-09-04T17:53:52.799Z,1.93
2022-09-04T17:56:25.309Z,2.10
2022-09-04T17:58:59.624Z,1.80
2022-09-04T18:01:33.768Z,2.10
2022-09-04T18:04:22.896Z,1.90
2022-09-04T18:06:56.714Z,2.00
2022-09-04T18:09:33.045Z,2.20
2022-09-04T18:12:11.151Z,2.10
2022-09-04T18:14:53.148Z,1.90
2022-09-04T18:17:47.863Z,2.00
2022-09-04T18:20:29.503Z,2.00
2022-09-04T18:23:30.828Z,1.90
2022-09-04T18:26:04.937Z,2.07
2022-09-04T18:28:47.303Z,2.10
2022-09-04T18:37:07.568Z,2.23
2022-09-04T18:37:20.407Z,1.97
2022-09-04T18:37:44.862Z,2.20
2022-09-04T18:40:14.972Z,2.10
2022-09-04T18:50:21.702Z,2.43
2022-09-04T18:50:24.235Z,2.30
2022-09-04T18:50:49.355Z,2.57
2022-09-04T18:51:44.059Z,3.00
2022-09-04T18:54:23.119Z,2.60
2022-09-04T18:56:55.750Z,2.37
2022-09-04T18:59:28.004Z,2.10
2022-09-04T19:02:04.361Z,2.53
2022-09-04T19:04:40.070Z,2.47
2022-09-04T19:07:12.859Z,2.30
2022-09-04T19:10:08.766Z,2.03
2022-09-04T19:12:48.023Z,1.97
2022-09-04T19:15:36.294Z,2.17
2022-09-04T19:18:13.243Z,2.20
2022-09-04T19:20:47.816Z,1.97
2022-09-04T19:23:25.594Z,2.20
2022-09-04T19:25:57.258Z,2.13
2022-09-04T19:28:30.469Z,2.37
2022-09-04T19:31:03.286Z,2.43
2022-09-04T19:33:40.412Z,2.27
2022-09-04T19:36:12.928Z,2.23
2022-09-04T19:45:05.750Z,2.37
2022-09-04T19:46:09.187Z,2.00
2022-09-04T19:46:15.050Z,2.30
2022-09-04T19:47:30.808Z,2.13
2022-09-04T19:53:19.481Z,2.17
2022-09-04T19:53:31.103Z,2.20
2022-09-04T19:56:08.421Z,2.30
2022-09-04T19:58:44.043Z,2.20
2022-09-04T20:01:16.922Z,2.20
2022-09-04T20:03:49.717Z,2.37
2022-09-04T20:06:30.106Z,2.50
2022-09-04T20:09:04.032Z,2.20
2022-09-04T20:11:36.522Z,2.50
2022-09-04T20:14:20.568Z,2.43
2022-09-04T20:17:08.451Z,2.53
2022-09-04T20:19:42.144Z,2.17
2022-09-04T20:22:25.937Z,2.30
2022-09-04T20:25:02.087Z,2.40
2022-09-04T20:27:36.506Z,2.40
2022-09-04T20:30:12.756Z,2.50
2022-09-04T20:32:55.987Z,2.03
2022-09-04T20:35:33.846Z,2.20
2022-09-04T20:38:12.439Z,2.40
2022-09-04T20:40:43.229Z,2.87
2022-09-04T20:43:26.870Z,2.73
2022-09-04T20:50:34.698Z,2.50
2022-09-04T20:52:50.302Z,2.50
2022-09-04T20:52:53.514Z,2.60
2022-09-04T20:55:30.032Z,2.43
2022-09-04T21:03:07.982Z,2.23
2022-09-04T21:03:08.613Z,2.40
2022-09-04T21:04:09.628Z,2.30
2022-09-04T21:06:44.433Z,2.10
2022-09-04T21:09:30.657Z,2.50
2022-09-04T21:12:13.938Z,2.57
2022-09-04T21:14:46.486Z,2.63
2022-09-04T21:18:06.274Z,2.33
2022-09-04T21:20:59.745Z,2.50
2022-09-04T21:24:03.688Z,2.40
2022-09-04T21:27:11.956Z,2.80
2022-09-04T21:29:59.488Z,2.50
2022-09-04T21:32:49.689Z,2.50
2022-09-04T21:35:22.949Z,2.70
2022-09-04T21:38:02.777Z,2.77
2022-09-04T21:40:52.498Z,2.97
2022-09-04T21:43:38.599Z,2.47
2022-09-04T21:46:54.635Z,2.43
2022-09-04T21:49:41.788Z,2.53
2022-09-04T21:52:32.406Z,2.40
2022-09-04T21:58:14.137Z,2.57
2022-09-04T22:02:32.419Z,2.60
2022-09-04T22:02:40.286Z,2.50
2022-09-04T22:04:19.967Z,2.50
2022-09-04T22:08:24.078Z,2.70
2022-09-04T22:13:30.138Z,2.87
2022-09-04T22:13:48.074Z,2.90
2022-09-04T22:16:18.512Z,2.77
2022-09-04T22:19:31.869Z,2.60
2022-09-04T22:22:11.547Z,2.90
2022-09-04T22:25:08.823Z,2.83
2022-09-04T22:28:15.150Z,2.57
2022-09-04T22:31:09.662Z,2.47
2022-09-04T22:34:15.725Z,2.60
2022-09-04T22:37:18.431Z,2.90
2022-09-04T22:40:00.408Z,2.87
2022-09-04T22:42:52.433Z,2.70
2022-09-04T22:46:02.471Z,2.50
2022-09-04T22:49:12.910Z,2.50
2022-09-04T22:52:09.976Z,2.80
2022-09-04T22:54:58.449Z,2.83
2022-09-04T22:57:44.732Z,3.10
2022-09-04T23:00:16.871Z,2.90
2022-09-04T23:03:10.163Z,2.80
2022-09-04T23:08:21.549Z,2.40
2022-09-04T23:13:59.034Z,2.77
2022-09-04T23:14:02.409Z,2.83
2022-09-04T23:16:03.491Z,2.77
2022-09-04T23:23:05.126Z,2.43
2022-09-04T23:26:34.532Z,2.20
2022-09-04T23:26:46.817Z,2.40
2022-09-04T23:28:28.228Z,2.93
2022-09-04T23:31:19.756Z,2.57
2022-09-04T23:34:21.296Z,2.97
2022-09-04T23:37:19.581Z,2.90
2022-09-04T23:40:10.214Z,3.07
2022-09-04T23:43:14.113Z,2.60
2022-09-04T23:46:01.242Z,2.80
2022-09-04T23:49:06.703Z,3.40
2022-09-04T23:51:45.612Z,2.70
2022-09-04T23:54:53.062Z,2.73
2022-09-04T23:57:29.149Z,2.73
